Time;durP1;ratioP1;P1;durP2;ratioP2;P2;SDS_P1;SDS_P2;PMS_P1;PMS_P2;Temp;Humidity;BMP_temperature;BMP_pressure;BME280_temperature;BME280_humidity;BME280_pressure;Samples;Min_cycle;Max_cycle;Signal;HPM_P1;HPM_P2
2021/12/22 00:00:52;;;;;;;0.70;0.60;;;;;;;;;;5075030;28;20415;-68
2021/12/22 00:03:20;;;;;;;0.70;0.60;;;;;;;;;;5073169;28;20492;-69
2021/12/22 00:05:48;;;;;;;0.70;0.50;;;;;;;;;;5083928;28;20931;-69
2021/12/22 00:08:17;;;;;;;0.70;0.60;;;;;;;;;;5074047;28;20480;-69
2021/12/22 00:10:45;;;;;;;0.70;0.50;;;;;;;;;;5074921;28;20415;-68
2021/12/22 00:13:12;;;;;;;1.30;0.90;;;;;;;;;;5073476;28;20457;-68
2021/12/22 00:15:39;;;;;;;0.70;0.60;;;;;;;;;;5066556;28;20918;-68
2021/12/22 00:18:07;;;;;;;0.70;0.50;;;;;;;;;;5089837;28;20410;-68
2021/12/22 00:20:36;;;;;;;1.40;0.90;;;;;;;;;;5093641;28;20417;-68
2021/12/22 00:23:03;;;;;;;1.20;1.10;;;;;;;;;;5093877;28;20414;-69
2021/12/22 00:25:31;;;;;;;1.10;1.05;;;;;;;;;;5085280;28;20405;-69
2021/12/22 00:27:59;;;;;;;0.70;0.60;;;;;;;;;;5073619;28;20491;-68
2021/12/22 00:30:27;;;;;;;0.80;0.60;;;;;;;;;;5073348;28;20399;-69
2021/12/22 00:33:01;;;;;;;0.70;0.50;;;;;;;;;;5055289;28;20443;-69
2021/12/22 00:35:37;;;;;;;0.98;0.70;;;;;;;;;;5071815;28;20964;-68
2021/12/22 00:38:08;;;;;;;0.70;0.60;;;;;;;;;;5087305;28;20871;-69
2021/12/22 00:40:35;;;;;;;1.52;1.35;;;;;;;;;;5090547;28;20453;-68
2021/12/22 00:43:02;;;;;;;0.70;0.60;;;;;;;;;;5071611;28;20931;-68
2021/12/22 00:45:32;;;;;;;0.73;0.70;;;;;;;;;;5078568;28;20439;-69
2021/12/22 00:47:59;;;;;;;0.70;0.50;;;;;;;;;;5091169;28;20402;-70
2021/12/22 00:50:25;;;;;;;0.70;0.50;;;;;;;;;;5079263;28;20510;-68
2021/12/22 00:52:52;;;;;;;0.70;0.50;;;;;;;;;;5072872;28;20453;-69
2021/12/22 00:55:21;;;;;;;0.77;0.70;;;;;;;;;;5083020;28;20446;-69
2021/12/22 00:57:49;;;;;;;0.70;0.50;;;;;;;;;;5089992;28;20508;-70
2021/12/22 01:00:22;;;;;;;0.70;0.50;;;;;;;;;;5088756;28;20415;-69
2021/12/22 01:02:49;;;;;;;0.70;0.50;;;;;;;;;;5083124;28;20777;-69
2021/12/22 01:05:17;;;;;;;0.70;0.50;;;;;;;;;;5078488;28;20423;-69
2021/12/22 01:07:44;;;;;;;1.08;0.98;;;;;;;;;;5071269;28;20424;-69
2021/12/22 01:10:17;;;;;;;0.70;0.50;;;;;;;;;;5073061;28;20906;-69
2021/12/22 01:12:45;;;;;;;1.10;1.00;;;;;;;;;;5071424;28;20500;-69
2021/12/22 01:15:13;;;;;;;0.70;0.50;;;;;;;;;;5080535;28;20412;-70
2021/12/22 01:17:44;;;;;;;0.70;0.50;;;;;;;;;;5090232;28;20417;-69
2021/12/22 01:20:26;;;;;;;0.70;0.50;;;;;;;;;;5091941;28;20414;-70
2021/12/22 01:23:02;;;;;;;0.70;0.50;;;;;;;;;;5062839;28;20505;-69
2021/12/22 01:25:30;;;;;;;0.70;0.50;;;;;;;;;;5072202;28;20511;-69
2021/12/22 01:27:59;;;;;;;1.33;0.70;;;;;;;;;;5066099;28;20446;-69
2021/12/22 01:30:27;;;;;;;1.70;1.30;;;;;;;;;;5071398;28;20953;-69
2021/12/22 01:32:56;;;;;;;1.00;0.70;;;;;;;;;;5070777;28;20462;-68
2021/12/22 01:35:25;;;;;;;0.70;0.50;;;;;;;;;;5071086;28;20419;-68
2021/12/22 01:37:54;;;;;;;0.73;0.57;;;;;;;;;;5086098;28;20894;-69
2021/12/22 01:40:24;;;;;;;0.70;0.50;;;;;;;;;;5089485;28;20441;-68
2021/12/22 01:42:58;;;;;;;0.70;0.50;;;;;;;;;;5071013;28;20418;-68
2021/12/22 01:51:10;;;;;;;1.40;1.30;;;;;;;;;;5081285;28;20523;-68
2021/12/22 01:53:44;;;;;;;0.88;0.75;;;;;;;;;;5091681;28;20394;-70
2021/12/22 01:58:43;;;;;;;0.70;0.50;;;;;;;;;;5070376;28;20419;-68
2021/12/22 02:01:15;;;;;;;1.60;1.30;;;;;;;;;;5071546;28;20498;-68
2021/12/22 02:03:45;;;;;;;1.50;0.70;;;;;;;;;;5070709;28;20510;-69
2021/12/22 02:06:15;;;;;;;0.70;0.60;;;;;;;;;;5071023;28;20964;-69
2021/12/22 02:08:51;;;;;;;0.70;0.50;;;;;;;;;;5082431;28;20472;-68
2021/12/22 02:11:23;;;;;;;0.70;0.50;;;;;;;;;;5090904;28;20506;-69
2021/12/22 02:14:01;;;;;;;0.70;0.50;;;;;;;;;;5092212;28;20459;-69
2021/12/22 02:16:38;;;;;;;0.70;0.50;;;;;;;;;;5089158;28;20500;-70
2021/12/22 02:19:09;;;;;;;0.70;0.50;;;;;;;;;;5088893;28;20504;-69
2021/12/22 02:21:52;;;;;;;1.03;0.93;;;;;;;;;;5091142;28;20784;-69
2021/12/22 02:24:24;;;;;;;0.70;0.60;;;;;;;;;;5090323;28;20419;-69
2021/12/22 02:27:04;;;;;;;1.40;1.20;;;;;;;;;;5074126;28;20880;-68
2021/12/22 02:29:36;;;;;;;0.70;0.52;;;;;;;;;;5084999;28;20420;-69
2021/12/22 02:32:14;;;;;;;0.75;0.55;;;;;;;;;;5057579;28;20407;-69
2021/12/22 02:34:48;;;;;;;0.70;0.50;;;;;;;;;;5058581;28;20847;-68
2021/12/22 02:37:25;;;;;;;0.80;0.80;;;;;;;;;;5058043;28;20416;-68
2021/12/22 02:40:12;;;;;;;0.70;0.50;;;;;;;;;;5074132;28;20498;-68
2021/12/22 02:42:46;;;;;;;0.70;0.50;;;;;;;;;;5083302;28;20422;-68
2021/12/22 02:45:17;;;;;;;0.70;0.50;;;;;;;;;;5074083;28;20416;-68
2021/12/22 02:47:48;;;;;;;0.80;0.80;;;;;;;;;;5074357;28;20517;-69
2021/12/22 02:50:17;;;;;;;0.70;0.60;;;;;;;;;;5074230;28;20419;-68
2021/12/22 02:53:06;;;;;;;0.70;0.50;;;;;;;;;;5074354;28;20475;-70
2021/12/22 02:55:51;;;;;;;0.70;0.60;;;;;;;;;;5074288;28;20419;-68
2021/12/22 03:06:36;;;;;;;0.70;0.50;;;;;;;;;;5073513;28;20825;-68
2021/12/22 03:09:15;;;;;;;0.70;0.70;;;;;;;;;;5087918;28;20517;-68
2021/12/22 03:11:43;;;;;;;0.70;0.70;;;;;;;;;;5090526;28;20450;-68
2021/12/22 03:14:10;;;;;;;0.70;0.50;;;;;;;;;;5095074;28;20402;-68
2021/12/22 03:16:37;;;;;;;0.70;0.60;;;;;;;;;;5094061;28;20862;-69
2021/12/22 03:19:04;;;;;;;0.80;0.70;;;;;;;;;;5084455;28;20410;-69
2021/12/22 03:21:31;;;;;;;0.70;0.50;;;;;;;;;;5095310;28;20398;-68
2021/12/22 03:23:59;;;;;;;1.17;1.10;;;;;;;;;;5090864;28;20429;-68
2021/12/22 03:26:28;;;;;;;0.95;0.85;;;;;;;;;;5074645;28;20439;-68
2021/12/22 03:28:55;;;;;;;0.70;0.60;;;;;;;;;;5080120;28;20442;-67
2021/12/22 03:31:22;;;;;;;0.70;0.60;;;;;;;;;;5056533;28;20412;-68
2021/12/22 03:33:49;;;;;;;0.70;0.50;;;;;;;;;;5072565;28;20461;-69
2021/12/22 03:36:17;;;;;;;0.70;0.60;;;;;;;;;;5073242;28;20407;-69
2021/12/22 03:38:46;;;;;;;1.30;1.20;;;;;;;;;;5079913;28;20442;-69
2021/12/22 03:41:13;;;;;;;0.70;0.60;;;;;;;;;;5091413;28;20833;-68
2021/12/22 03:43:42;;;;;;;1.50;1.40;;;;;;;;;;5094612;28;20425;-68
2021/12/22 03:46:13;;;;;;;0.70;0.50;;;;;;;;;;5092991;28;20479;-68
2021/12/22 03:48:42;;;;;;;0.70;0.50;;;;;;;;;;5084186;28;20417;-68
2021/12/22 03:51:08;;;;;;;0.70;0.70;;;;;;;;;;5074574;28;20609;-69
2021/12/22 03:53:35;;;;;;;0.70;0.60;;;;;;;;;;5093859;28;20434;-69
2021/12/22 03:56:03;;;;;;;0.70;0.55;;;;;;;;;;5075002;28;20407;-68
2021/12/22 03:58:30;;;;;;;0.80;0.80;;;;;;;;;;5077730;28;20458;-69
2021/12/22 04:00:59;;;;;;;0.70;0.50;;;;;;;;;;5076075;28;20404;-68
2021/12/22 04:03:31;;;;;;;1.00;0.70;;;;;;;;;;5073535;28;20411;-68
2021/12/22 04:05:58;;;;;;;0.70;0.70;;;;;;;;;;5073886;28;20442;-69
2021/12/22 04:08:25;;;;;;;0.70;0.50;;;;;;;;;;5081825;28;20445;-68
2021/12/22 04:10:51;;;;;;;0.70;0.50;;;;;;;;;;5092468;28;21209;-68
2021/12/22 04:13:19;;;;;;;0.70;0.50;;;;;;;;;;5089730;28;20508;-68
2021/12/22 04:15:46;;;;;;;0.70;0.50;;;;;;;;;;5071681;28;20404;-67
2021/12/22 04:18:17;;;;;;;1.30;1.20;;;;;;;;;;5085764;28;20418;-68
2021/12/22 04:20:43;;;;;;;0.70;0.60;;;;;;;;;;5090492;28;20431;-69
2021/12/22 04:23:11;;;;;;;0.70;0.50;;;;;;;;;;5073322;28;20814;-69
2021/12/22 04:25:38;;;;;;;0.70;0.60;;;;;;;;;;5094156;28;20414;-69
2021/12/22 04:28:08;;;;;;;1.00;0.63;;;;;;;;;;5089297;28;20521;-68
2021/12/22 04:30:35;;;;;;;0.70;0.50;;;;;;;;;;5093782;28;20429;-68
2021/12/22 04:33:03;;;;;;;0.70;0.50;;;;;;;;;;5091572;28;20502;-69
2021/12/22 04:35:31;;;;;;;0.70;0.60;;;;;;;;;;5077010;28;20464;-69
2021/12/22 04:37:57;;;;;;;1.30;1.20;;;;;;;;;;5072858;28;20520;-69
2021/12/22 04:40:24;;;;;;;1.10;1.00;;;;;;;;;;5085940;28;20431;-68
2021/12/22 04:42:52;;;;;;;0.70;0.60;;;;;;;;;;5072226;28;20427;-68
2021/12/22 04:45:19;;;;;;;0.70;0.57;;;;;;;;;;5072310;28;20453;-70
2021/12/22 04:47:47;;;;;;;0.80;0.80;;;;;;;;;;5075563;28;20446;-69
2021/12/22 04:50:17;;;;;;;0.70;0.50;;;;;;;;;;5073258;28;20892;-69
2021/12/22 04:52:53;;;;;;;1.70;1.60;;;;;;;;;;5088193;28;20398;-68
2021/12/22 04:55:21;;;;;;;0.70;0.60;;;;;;;;;;5073985;28;20443;-69
2021/12/22 04:57:47;;;;;;;0.70;0.57;;;;;;;;;;5071811;28;20462;-69
2021/12/22 05:00:15;;;;;;;0.70;0.50;;;;;;;;;;5071715;28;20941;-69
2021/12/22 05:02:42;;;;;;;0.70;0.50;;;;;;;;;;5073183;28;20445;-68
2021/12/22 05:05:10;;;;;;;1.70;1.00;;;;;;;;;;5075843;28;20420;-69
2021/12/22 05:07:37;;;;;;;0.70;0.50;;;;;;;;;;5080936;28;20414;-68
2021/12/22 05:10:07;;;;;;;0.70;0.50;;;;;;;;;;5092903;28;20497;-68
2021/12/22 05:12:35;;;;;;;0.70;0.50;;;;;;;;;;5091820;28;20431;-69
2021/12/22 05:15:02;;;;;;;1.20;0.70;;;;;;;;;;5070936;28;20439;-70
2021/12/22 05:20:06;;;;;;;0.70;0.60;;;;;;;;;;5072278;28;20447;-69
2021/12/22 05:22:33;;;;;;;0.77;0.60;;;;;;;;;;5071528;28;20470;-71
2021/12/22 05:25:02;;;;;;;1.30;1.20;;;;;;;;;;5072856;28;20416;-70
2021/12/22 05:27:31;;;;;;;1.20;0.77;;;;;;;;;;5081818;28;20441;-70
2021/12/22 05:29:57;;;;;;;0.70;0.50;;;;;;;;;;5091768;28;20424;-68
2021/12/22 05:32:30;;;;;;;0.70;0.57;;;;;;;;;;5091240;28;20410;-67
2021/12/22 05:34:57;;;;;;;0.70;0.50;;;;;;;;;;5081541;28;20961;-68
2021/12/22 05:37:23;;;;;;;0.70;0.50;;;;;;;;;;5072782;28;20416;-68
2021/12/22 05:39:50;;;;;;;0.80;0.60;;;;;;;;;;5071291;28;20473;-68
2021/12/22 05:42:18;;;;;;;0.70;0.60;;;;;;;;;;5072693;28;20403;-68
2021/12/22 05:44:47;;;;;;;0.70;0.50;;;;;;;;;;5091179;28;20471;-68
2021/12/22 05:47:14;;;;;;;0.70;0.52;;;;;;;;;;5085438;28;20423;-68
2021/12/22 05:49:43;;;;;;;0.80;0.80;;;;;;;;;;5091679;28;20748;-68
2021/12/22 05:52:09;;;;;;;0.70;0.60;;;;;;;;;;5092567;28;20501;-68
2021/12/22 05:54:36;;;;;;;1.40;1.30;;;;;;;;;;5088543;28;20770;-69
2021/12/22 05:57:03;;;;;;;0.70;0.50;;;;;;;;;;5081327;28;20443;-68
2021/12/22 05:59:31;;;;;;;3.00;0.80;;;;;;;;;;5087670;28;20746;-68
2021/12/22 06:02:00;;;;;;;0.70;0.50;;;;;;;;;;5076014;28;20491;-68
2021/12/22 06:04:28;;;;;;;1.70;1.40;;;;;;;;;;5074904;28;20420;-67
2021/12/22 06:06:55;;;;;;;0.70;0.50;;;;;;;;;;5075787;28;20769;-68
2021/12/22 06:09:22;;;;;;;0.70;0.50;;;;;;;;;;5091719;28;20411;-68
2021/12/22 06:11:52;;;;;;;0.70;0.55;;;;;;;;;;5088041;28;20404;-69
2021/12/22 06:14:18;;;;;;;0.70;0.70;;;;;;;;;;5091688;28;20413;-67
2021/12/22 06:16:46;;;;;;;0.80;0.60;;;;;;;;;;5093742;28;20424;-67
2021/12/22 06:19:15;;;;;;;0.70;0.50;;;;;;;;;;5090184;28;20406;-68
2021/12/22 06:21:42;;;;;;;1.00;0.70;;;;;;;;;;5099465;28;20398;-68
2021/12/22 06:24:09;;;;;;;0.70;0.50;;;;;;;;;;5083656;28;20489;-68
2021/12/22 06:26:36;;;;;;;0.70;0.50;;;;;;;;;;5081358;28;20931;-67
2021/12/22 06:29:03;;;;;;;0.70;0.50;;;;;;;;;;5091240;28;20465;-69
2021/12/22 06:31:31;;;;;;;0.70;0.60;;;;;;;;;;5091353;28;20414;-69
2021/12/22 06:33:58;;;;;;;0.80;0.70;;;;;;;;;;5081673;28;20425;-69
2021/12/22 06:36:27;;;;;;;0.70;0.50;;;;;;;;;;5073699;28;20400;-69
2021/12/22 06:38:53;;;;;;;0.70;0.50;;;;;;;;;;5095243;28;20410;-69
2021/12/22 06:41:20;;;;;;;0.90;0.70;;;;;;;;;;5091926;28;20896;-69
2021/12/22 06:43:47;;;;;;;0.70;0.57;;;;;;;;;;5079323;28;20414;-69
2021/12/22 06:46:14;;;;;;;0.70;0.50;;;;;;;;;;5088358;28;20408;-69
2021/12/22 06:48:40;;;;;;;0.70;0.60;;;;;;;;;;5082512;28;20403;-69
2021/12/22 06:51:07;;;;;;;0.80;0.80;;;;;;;;;;5075012;28;20472;-70
2021/12/22 06:53:36;;;;;;;0.70;0.50;;;;;;;;;;5073966;28;20451;-69
2021/12/22 06:56:04;;;;;;;1.30;1.10;;;;;;;;;;5074846;28;20399;-69
2021/12/22 06:58:30;;;;;;;0.70;0.50;;;;;;;;;;5074954;28;20534;-69
2021/12/22 07:00:58;;;;;;;0.70;0.50;;;;;;;;;;5088639;28;20441;-70
2021/12/22 07:03:25;;;;;;;0.80;0.80;;;;;;;;;;5095181;28;20898;-69
2021/12/22 07:05:53;;;;;;;0.70;0.50;;;;;;;;;;5087773;28;20450;-70
2021/12/22 07:08:20;;;;;;;0.70;0.50;;;;;;;;;;5075357;28;20407;-70
2021/12/22 07:10:48;;;;;;;0.80;0.70;;;;;;;;;;5073880;28;20434;-69
2021/12/22 07:13:15;;;;;;;0.70;0.50;;;;;;;;;;5077334;28;20513;-70
2021/12/22 07:15:43;;;;;;;0.70;0.50;;;;;;;;;;5080633;28;20957;-69
2021/12/22 07:18:11;;;;;;;0.70;0.60;;;;;;;;;;5059162;28;20434;-70
2021/12/22 07:20:38;;;;;;;1.40;0.90;;;;;;;;;;5073186;28;20419;-69
2021/12/22 07:23:04;;;;;;;0.70;0.50;;;;;;;;;;5083668;28;20760;-69
2021/12/22 07:25:33;;;;;;;0.70;0.50;;;;;;;;;;5096127;28;20480;-69
2021/12/22 07:28:01;;;;;;;0.70;0.50;;;;;;;;;;5095185;28;20437;-69
2021/12/22 07:30:28;;;;;;;2.47;0.80;;;;;;;;;;5093678;28;20406;-68
2021/12/22 07:32:58;;;;;;;0.70;0.50;;;;;;;;;;5080552;28;20434;-68
2021/12/22 07:35:30;;;;;;;0.70;0.50;;;;;;;;;;5075174;28;20991;-69
2021/12/22 07:38:00;;;;;;;0.70;0.50;;;;;;;;;;5077506;28;20519;-68
2021/12/22 07:40:27;;;;;;;0.70;0.60;;;;;;;;;;5074686;28;20499;-68
2021/12/22 07:42:56;;;;;;;1.10;0.77;;;;;;;;;;5079867;28;20430;-69
2021/12/22 07:45:24;;;;;;;0.90;0.90;;;;;;;;;;5074283;28;20420;-69
2021/12/22 07:47:51;;;;;;;0.70;0.60;;;;;;;;;;5074019;28;20430;-69
2021/12/22 07:50:18;;;;;;;0.70;0.50;;;;;;;;;;5074900;28;20404;-68
2021/12/22 07:52:44;;;;;;;0.70;0.50;;;;;;;;;;5082637;28;20413;-69
2021/12/22 07:55:11;;;;;;;0.80;0.63;;;;;;;;;;5074455;28;20775;-68
2021/12/22 07:57:38;;;;;;;0.70;0.50;;;;;;;;;;5074376;28;20442;-69
2021/12/22 08:00:06;;;;;;;0.70;0.50;;;;;;;;;;5072449;28;20485;-68
2021/12/22 08:02:39;;;;;;;0.70;0.50;;;;;;;;;;5082267;28;20430;-69
2021/12/22 08:05:08;;;;;;;0.80;0.70;;;;;;;;;;5095150;28;20459;-69
2021/12/22 08:07:37;;;;;;;1.30;1.10;;;;;;;;;;5094487;28;20912;-70
2021/12/22 08:10:04;;;;;;;1.38;0.65;;;;;;;;;;5076243;28;20795;-70
2021/12/22 08:12:32;;;;;;;1.00;0.90;;;;;;;;;;5082037;28;20420;-69
2021/12/22 08:14:59;;;;;;;0.70;0.50;;;;;;;;;;5078356;28;20411;-68
2021/12/22 08:17:27;;;;;;;2.90;0.60;;;;;;;;;;5091867;28;20432;-69
2021/12/22 08:19:58;;;;;;;0.70;0.50;;;;;;;;;;5094550;28;20402;-68
2021/12/22 08:22:25;;;;;;;0.70;0.60;;;;;;;;;;5085914;28;20798;-68
2021/12/22 08:24:52;;;;;;;1.00;0.85;;;;;;;;;;5089096;28;20457;-68
2021/12/22 08:27:21;;;;;;;0.70;0.50;;;;;;;;;;5079105;28;20967;-68
2021/12/22 08:29:48;;;;;;;0.80;0.70;;;;;;;;;;5091171;28;20503;-68
2021/12/22 08:32:16;;;;;;;2.40;0.90;;;;;;;;;;5092966;28;20406;-68
2021/12/22 08:34:42;;;;;;;1.00;0.80;;;;;;;;;;5073018;28;20420;-68
2021/12/22 08:39:56;;;;;;;0.70;0.50;;;;;;;;;;5089100;28;20410;-69
2021/12/22 08:42:24;;;;;;;0.70;0.70;;;;;;;;;;5083637;28;20846;-68
2021/12/22 08:44:52;;;;;;;0.70;0.50;;;;;;;;;;5088682;28;20460;-69
2021/12/22 08:47:19;;;;;;;1.40;0.90;;;;;;;;;;5074891;28;20435;-69
2021/12/22 08:49:46;;;;;;;0.70;0.50;;;;;;;;;;5083182;28;20402;-68
2021/12/22 08:52:14;;;;;;;0.90;0.90;;;;;;;;;;5082123;28;20410;-69
2021/12/22 08:54:42;;;;;;;0.70;0.50;;;;;;;;;;5078208;28;20890;-68
2021/12/22 08:57:09;;;;;;;0.85;0.68;;;;;;;;;;5082275;28;20896;-69
2021/12/22 08:59:35;;;;;;;0.80;0.70;;;;;;;;;;5091820;28;20474;-68
2021/12/22 09:02:02;;;;;;;0.70;0.50;;;;;;;;;;5091735;28;20452;-69
2021/12/22 09:04:52;;;;;;;3.47;0.73;;;;;;;;;;5092955;28;20928;-70
2021/12/22 09:07:21;;;;;;;0.70;0.50;;;;;;;;;;5091096;28;20467;-68
2021/12/22 09:09:48;;;;;;;1.23;1.13;;;;;;;;;;5092813;28;20505;-69
2021/12/22 09:12:15;;;;;;;1.00;0.90;;;;;;;;;;5092816;28;20471;-69
2021/12/22 09:14:41;;;;;;;0.80;0.70;;;;;;;;;;5075106;28;20753;-69
2021/12/22 09:17:08;;;;;;;0.70;0.50;;;;;;;;;;5072324;28;20399;-68
2021/12/22 09:19:35;;;;;;;1.20;0.60;;;;;;;;;;5072809;28;20395;-69
2021/12/22 09:22:03;;;;;;;1.10;0.90;;;;;;;;;;5082322;28;20410;-69
2021/12/22 09:24:35;;;;;;;0.70;0.52;;;;;;;;;;5091398;28;20464;-69
2021/12/22 09:27:02;;;;;;;0.70;0.50;;;;;;;;;;5087871;28;20448;-69
2021/12/22 09:29:29;;;;;;;0.77;0.60;;;;;;;;;;5085256;28;20753;-69
2021/12/22 09:31:57;;;;;;;3.00;0.80;;;;;;;;;;5073531;28;20411;-70
2021/12/22 09:34:24;;;;;;;1.00;0.70;;;;;;;;;;5076105;28;20435;-69
2021/12/22 09:36:51;;;;;;;1.00;0.90;;;;;;;;;;5084135;28;20901;-70
2021/12/22 09:39:17;;;;;;;0.70;0.50;;;;;;;;;;5078242;28;20426;-69
2021/12/22 09:41:46;;;;;;;0.73;0.68;;;;;;;;;;5081710;28;20785;-69
2021/12/22 09:44:13;;;;;;;0.90;0.60;;;;;;;;;;5085628;28;20403;-71
2021/12/22 09:46:41;;;;;;;0.70;0.50;;;;;;;;;;5094216;28;20487;-70
2021/12/22 09:49:24;;;;;;;0.90;0.60;;;;;;;;;;5076565;28;20473;-70
2021/12/22 09:54:39;;;;;;;0.70;0.50;;;;;;;;;;5096562;28;20501;-71
2021/12/22 09:57:08;;;;;;;0.70;0.50;;;;;;;;;;5078712;28;20408;-71
2021/12/22 09:59:35;;;;;;;0.70;0.50;;;;;;;;;;5096212;28;20394;-71
2021/12/22 10:02:03;;;;;;;0.90;0.77;;;;;;;;;;5093263;28;20817;-71
2021/12/22 10:04:31;;;;;;;4.82;1.38;;;;;;;;;;5080402;28;20477;-71
2021/12/22 10:07:03;;;;;;;0.70;0.55;;;;;;;;;;5083109;28;20842;-72
2021/12/22 10:09:31;;;;;;;0.70;0.60;;;;;;;;;;5095934;28;20433;-72
2021/12/22 10:12:04;;;;;;;1.10;0.88;;;;;;;;;;5095247;28;20405;-72
2021/12/22 10:14:48;;;;;;;0.70;0.50;;;;;;;;;;5079245;28;20438;-73
2021/12/22 10:17:25;;;;;;;0.70;0.50;;;;;;;;;;5075320;28;20399;-72
2021/12/22 10:19:55;;;;;;;0.70;0.50;;;;;;;;;;5073947;28;20486;-72
2021/12/22 10:22:27;;;;;;;1.40;1.10;;;;;;;;;;5080181;28;20500;-71
2021/12/22 10:24:59;;;;;;;0.70;0.50;;;;;;;;;;5092754;28;20412;-71
2021/12/22 10:27:29;;;;;;;1.20;0.70;;;;;;;;;;5094110;28;20436;-71
2021/12/22 10:29:57;;;;;;;1.40;1.30;;;;;;;;;;5081934;28;20887;-73
2021/12/22 10:32:24;;;;;;;0.80;0.60;;;;;;;;;;5074245;28;20924;-72
2021/12/22 10:34:57;;;;;;;1.08;0.98;;;;;;;;;;5078750;28;20422;-72
2021/12/22 10:37:34;;;;;;;2.40;0.90;;;;;;;;;;5068711;28;20404;-72
2021/12/22 10:40:02;;;;;;;1.00;0.70;;;;;;;;;;5093644;28;20428;-73
2021/12/22 10:42:39;;;;;;;1.07;0.77;;;;;;;;;;5077300;28;20414;-73
2021/12/22 10:45:12;;;;;;;0.70;0.50;;;;;;;;;;5057015;28;20407;-74
2021/12/22 10:49:14;;;;;;;0.90;0.60;;;;;;;;;;5075252;28;20455;-73
2021/12/22 10:50:34;;;;;;;1.30;1.20;;;;;;;;;;5083612;28;20477;-73
2021/12/22 10:53:00;;;;;;;1.00;0.70;;;;;;;;;;5097190;28;20440;-75
2021/12/22 10:55:35;;;;;;;1.00;0.90;;;;;;;;;;5079713;28;20406;-75
2021/12/22 10:58:13;;;;;;;0.70;0.60;;;;;;;;;;5079186;28;20454;-75
2021/12/22 11:00:42;;;;;;;2.10;1.50;;;;;;;;;;5076564;28;20414;-76
2021/12/22 11:03:15;;;;;;;0.70;0.50;;;;;;;;;;5095369;28;20398;-76
2021/12/22 11:05:44;;;;;;;0.80;0.60;;;;;;;;;;5077283;28;20422;-75
2021/12/22 11:08:18;;;;;;;0.80;0.70;;;;;;;;;;5079939;28;20919;-74
2021/12/22 11:10:45;;;;;;;1.00;0.90;;;;;;;;;;5079654;28;20406;-76
2021/12/22 11:13:17;;;;;;;0.80;0.70;;;;;;;;;;5084913;28;20510;-75
2021/12/22 11:15:46;;;;;;;1.15;1.05;;;;;;;;;;5074691;28;20411;-76
2021/12/22 11:18:24;;;;;;;0.80;0.80;;;;;;;;;;5076197;28;20531;-76
2021/12/22 11:21:10;;;;;;;1.40;0.80;;;;;;;;;;5086183;28;20821;-75
2021/12/22 11:23:37;;;;;;;0.80;0.60;;;;;;;;;;5093549;28;20728;-76
2021/12/22 11:26:05;;;;;;;0.70;0.50;;;;;;;;;;5076803;28;20419;-76
2021/12/22 11:28:34;;;;;;;0.80;0.80;;;;;;;;;;5074911;28;20415;-75
2021/12/22 11:31:04;;;;;;;1.20;1.10;;;;;;;;;;5077524;28;20503;-76
2021/12/22 11:33:31;;;;;;;0.70;0.60;;;;;;;;;;5074148;28;20473;-76
2021/12/22 11:35:59;;;;;;;1.50;0.85;;;;;;;;;;5074126;28;20408;-77
2021/12/22 11:38:27;;;;;;;1.30;1.10;;;;;;;;;;5075328;28;20983;-75
2021/12/22 11:41:02;;;;;;;1.10;0.70;;;;;;;;;;5074030;28;20868;-75
2021/12/22 11:43:29;;;;;;;0.70;0.50;;;;;;;;;;5072896;28;20437;-75
2021/12/22 11:45:56;;;;;;;0.70;0.60;;;;;;;;;;5083737;28;20405;-75
2021/12/22 11:48:24;;;;;;;0.70;0.50;;;;;;;;;;5073927;28;20946;-75
2021/12/22 11:50:53;;;;;;;0.90;0.73;;;;;;;;;;5073917;28;20472;-75
2021/12/22 11:53:19;;;;;;;0.80;0.80;;;;;;;;;;5085968;28;20425;-75
2021/12/22 11:55:47;;;;;;;0.70;0.60;;;;;;;;;;5093999;28;20451;-76
2021/12/22 11:58:16;;;;;;;0.70;0.60;;;;;;;;;;5094192;28;20402;-76
2021/12/22 12:00:43;;;;;;;1.00;0.80;;;;;;;;;;5075419;28;20496;-75
2021/12/22 12:03:21;;;;;;;1.40;0.90;;;;;;;;;;5089660;28;20413;-75
2021/12/22 12:06:09;;;;;;;1.63;0.63;;;;;;;;;;5093147;28;20953;-76
2021/12/22 12:08:37;;;;;;;1.00;0.60;;;;;;;;;;5091125;28;20456;-75
2021/12/22 12:11:04;;;;;;;0.80;0.70;;;;;;;;;;5074137;28;20395;-76
2021/12/22 12:13:36;;;;;;;0.80;0.70;;;;;;;;;;5073650;28;20441;-74
2021/12/22 12:21:52;;;;;;;0.70;0.50;;;;;;;;;;5092976;28;20410;-74
2021/12/22 12:24:31;;;;;;;0.70;0.50;;;;;;;;;;5071787;28;20961;-75
2021/12/22 12:27:01;;;;;;;1.60;0.73;;;;;;;;;;5085521;28;20455;-75
2021/12/22 12:29:48;;;;;;;0.70;0.70;;;;;;;;;;5073492;28;20261;-75
2021/12/22 12:32:15;;;;;;;;;;;;;;;;;;5078402;28;20048;-75
2021/12/22 12:34:43;;;;;;;;;;;;;;;;;;5090690;28;19920;-74
2021/12/22 12:37:34;;;;;;;0.90;0.90;;;;;;;;;;5091177;28;20301;-75
2021/12/22 12:40:02;;;;;;;0.80;0.70;;;;;;;;;;5092993;28;20192;-74
2021/12/22 12:42:44;;;;;;;0.70;0.70;;;;;;;;;;5081597;28;20197;-73
2021/12/22 12:45:26;;;;;;;0.73;0.70;;;;;;;;;;5082667;28;20192;-74
2021/12/22 12:48:08;;;;;;;0.80;0.80;;;;;;;;;;5091840;28;20565;-74
2021/12/22 12:50:35;;;;;;;1.25;1.15;;;;;;;;;;5094433;28;20685;-74
2021/12/22 12:53:05;;;;;;;0.70;0.60;;;;;;;;;;5091879;28;20208;-73
2021/12/22 12:55:33;;;;;;;1.20;1.10;;;;;;;;;;5094325;28;20579;-74
2021/12/22 12:58:16;;;;;;;1.63;1.17;;;;;;;;;;5092081;28;20535;-73
2021/12/22 13:00:45;;;;;;;1.00;0.70;;;;;;;;;;5090764;28;20770;-74
2021/12/22 13:03:12;;;;;;;0.70;0.70;;;;;;;;;;5091955;28;20176;-73
2021/12/22 13:05:41;;;;;;;0.70;0.70;;;;;;;;;;5073757;28;20201;-74
2021/12/22 13:08:08;;;;;;;0.70;0.65;;;;;;;;;;5072196;28;20299;-74
2021/12/22 13:10:38;;;;;;;0.80;0.77;;;;;;;;;;5074449;28;20185;-74
2021/12/22 13:13:15;;;;;;;0.70;0.60;;;;;;;;;;5073095;28;20189;-72
2021/12/22 13:15:51;;;;;;;0.70;0.60;;;;;;;;;;5075435;28;20196;-73
2021/12/22 13:18:28;;;;;;;0.70;0.60;;;;;;;;;;5082492;28;20581;-72
2021/12/22 13:20:57;;;;;;;0.77;0.77;;;;;;;;;;5071883;28;20200;-73
2021/12/22 13:23:26;;;;;;;1.00;0.80;;;;;;;;;;5071354;28;20447;-73
2021/12/22 13:25:56;;;;;;;0.90;0.70;;;;;;;;;;5071278;28;20534;-73
2021/12/22 13:28:25;;;;;;;2.50;0.70;;;;;;;;;;5054548;28;20423;-72
2021/12/22 13:30:55;;;;;;;1.40;1.30;;;;;;;;;;5069996;28;20420;-74
2021/12/22 13:33:23;;;;;;;0.70;0.65;;;;;;;;;;5089076;28;20972;-73
2021/12/22 13:35:52;;;;;;;0.90;0.80;;;;;;;;;;5083857;28;20451;-75
2021/12/22 13:38:20;;;;;;;1.30;0.70;;;;;;;;;;5079129;28;20757;-74
2021/12/22 13:40:48;;;;;;;0.80;0.80;;;;;;;;;;5069187;28;20541;-74
2021/12/22 13:43:21;;;;;;;1.00;0.60;;;;;;;;;;5070276;28;20457;-73
2021/12/22 13:45:48;;;;;;;0.80;0.70;;;;;;;;;;5053911;28;20784;-74
2021/12/22 13:48:19;;;;;;;0.90;0.75;;;;;;;;;;5086647;28;20596;-73
2021/12/22 13:50:50;;;;;;;2.80;1.00;;;;;;;;;;5089252;28;20585;-73
2021/12/22 13:53:20;;;;;;;0.70;0.50;;;;;;;;;;5088308;28;20451;-72
2021/12/22 13:55:48;;;;;;;0.70;0.60;;;;;;;;;;5092314;28;20770;-72
2021/12/22 13:58:45;;;;;;;1.20;0.83;;;;;;;;;;5087382;28;20408;-73
2021/12/22 14:01:26;;;;;;;0.70;0.50;;;;;;;;;;4993819;28;20452;-72
2021/12/22 14:04:04;;;;;;;0.90;0.80;;;;;;;;;;5063385;28;20424;-73
2021/12/22 14:06:34;;;;;;;0.90;0.73;;;;;;;;;;5080454;28;20894;-73
2021/12/22 14:09:06;;;;;;;0.70;0.50;;;;;;;;;;5075539;28;20494;-73
2021/12/22 14:11:58;;;;;;;2.00;1.00;;;;;;;;;;5088423;28;20457;-74
2021/12/22 14:14:26;;;;;;;0.70;0.60;;;;;;;;;;5089217;28;20978;-74
2021/12/22 14:17:07;;;;;;;0.80;0.60;;;;;;;;;;5083789;28;20497;-74
2021/12/22 14:19:35;;;;;;;0.88;0.77;;;;;;;;;;5074688;28;20406;-72
2021/12/22 14:22:03;;;;;;;0.70;0.60;;;;;;;;;;5084407;28;20759;-73
2021/12/22 14:24:31;;;;;;;1.05;0.95;;;;;;;;;;5086156;28;20569;-73
2021/12/22 14:26:59;;;;;;;0.90;0.80;;;;;;;;;;5084707;28;20420;-73
2021/12/22 14:29:26;;;;;;;0.70;0.60;;;;;;;;;;5091741;28;20394;-73
2021/12/22 14:31:56;;;;;;;0.70;0.60;;;;;;;;;;5084102;28;20418;-73
2021/12/22 14:34:22;;;;;;;1.00;0.90;;;;;;;;;;5087474;28;20444;-75
2021/12/22 14:36:51;;;;;;;0.82;0.70;;;;;;;;;;5087306;28;20410;-74
2021/12/22 14:39:17;;;;;;;0.70;0.50;;;;;;;;;;5074819;28;20414;-75
2021/12/22 14:41:47;;;;;;;0.70;0.50;;;;;;;;;;5086203;28;20454;-74
2021/12/22 14:44:18;;;;;;;0.80;0.70;;;;;;;;;;5085151;28;20461;-74
2021/12/22 14:46:46;;;;;;;1.30;0.80;;;;;;;;;;5087959;28;20406;-73
2021/12/22 14:49:15;;;;;;;1.40;0.85;;;;;;;;;;5092663;28;20721;-74
2021/12/22 14:51:43;;;;;;;1.40;0.80;;;;;;;;;;5090615;28;20406;-73
2021/12/22 14:54:11;;;;;;;0.70;0.50;;;;;;;;;;5093990;28;20394;-74
2021/12/22 14:56:40;;;;;;;2.03;1.85;;;;;;;;;;5092634;28;20413;-73
2021/12/22 14:59:08;;;;;;;1.20;0.90;;;;;;;;;;5094982;28;20395;-73
2021/12/22 15:01:37;;;;;;;0.70;0.50;;;;;;;;;;5094926;28;20437;-74
2021/12/22 15:04:06;;;;;;;2.30;1.60;;;;;;;;;;5099105;28;20394;-74
2021/12/22 15:06:35;;;;;;;0.70;0.52;;;;;;;;;;5095790;28;20414;-75
2021/12/22 15:09:03;;;;;;;0.80;0.60;;;;;;;;;;5097448;28;20425;-74
2021/12/22 15:11:30;;;;;;;2.00;0.70;;;;;;;;;;5096288;28;20398;-73
2021/12/22 15:13:57;;;;;;;1.60;0.82;;;;;;;;;;5093160;28;20456;-73
2021/12/22 15:16:26;;;;;;;0.85;0.68;;;;;;;;;;5078752;28;20411;-73
2021/12/22 15:18:53;;;;;;;1.00;0.80;;;;;;;;;;5093979;28;20414;-73
2021/12/22 15:21:20;;;;;;;0.70;0.50;;;;;;;;;;5084698;28;20392;-73
2021/12/22 15:23:49;;;;;;;0.70;0.50;;;;;;;;;;5083394;28;20501;-74
2021/12/22 15:26:19;;;;;;;1.80;1.70;;;;;;;;;;5092436;28;20413;-73
2021/12/22 15:28:46;;;;;;;1.40;0.70;;;;;;;;;;5092944;28;20952;-73